createdAt,value
2017-07-31T00:00:14.148Z,19.4
2017-07-31T00:01:15.809Z,19.4
2017-07-31T00:02:17.541Z,19.5
2017-07-31T00:03:19.228Z,19.5
2017-07-31T00:04:35.781Z,19.5
2017-07-31T00:05:37.551Z,19.4
2017-07-31T00:06:39.205Z,19.3
2017-07-31T00:07:40.952Z,19.4
2017-07-31T00:08:42.607Z,19.4
2017-07-31T00:09:44.413Z,19.4
2017-07-31T00:10:46.209Z,19.3
2017-07-31T00:11:47.917Z,19.4
2017-07-31T00:12:49.616Z,19.4
2017-07-31T00:13:51.425Z,19.4
2017-07-31T00:14:53.109Z,19.4
2017-07-31T00:15:54.946Z,19.5
2017-07-31T00:16:56.629Z,19.5
2017-07-31T00:17:58.473Z,19.5
2017-07-31T00:19:00.148Z,19.4
2017-07-31T00:20:01.900Z,19.5
2017-07-31T00:21:03.569Z,19.5
2017-07-31T00:22:05.387Z,19.5
2017-07-31T00:23:07.056Z,19.4
2017-07-31T00:24:08.785Z,19.4
2017-07-31T00:25:10.524Z,19.4
2017-07-31T00:26:12.271Z,19.4
2017-07-31T00:27:14.790Z,19.5
2017-07-31T00:28:16.583Z,19.4
2017-07-31T00:29:18.281Z,19.4
2017-07-31T00:30:20.713Z,19.2
2017-07-31T00:31:22.775Z,19.3
2017-07-31T00:32:24.598Z,19.3
2017-07-31T00:33:26.436Z,19.3
2017-07-31T00:34:28.351Z,19.2
2017-07-31T00:35:30.152Z,19.2
2017-07-31T00:36:33.040Z,19.2
2017-07-31T00:37:34.773Z,19.2
2017-07-31T00:38:36.647Z,19.2
2017-07-31T00:39:41.292Z,19.2
2017-07-31T00:40:43.086Z,19.2
2017-07-31T00:41:44.808Z,19.2
2017-07-31T00:42:46.638Z,19.1
2017-07-31T00:43:48.344Z,19.1
2017-07-31T00:44:50.175Z,19.0
2017-07-31T00:45:51.897Z,19.0
2017-07-31T00:46:53.667Z,19.1
2017-07-31T00:47:55.536Z,19.1
2017-07-31T00:48:57.635Z,19.0
2017-07-31T00:49:59.423Z,18.9
2017-07-31T00:51:03.383Z,19.0
2017-07-31T00:52:05.046Z,18.9
2017-07-31T00:53:06.820Z,18.9
2017-07-31T00:54:08.519Z,18.8
2017-07-31T00:55:10.317Z,18.9
2017-07-31T00:56:12.612Z,18.9
2017-07-31T00:57:14.502Z,18.8
2017-07-31T00:58:16.329Z,18.8
2017-07-31T00:59:18.713Z,18.8
2017-07-31T01:00:21.008Z,18.8
2017-07-31T01:01:22.785Z,18.7
2017-07-31T01:02:24.763Z,18.8
2017-07-31T01:03:29.395Z,18.8
2017-07-31T01:04:31.272Z,18.8
2017-07-31T01:05:33.352Z,18.8
2017-07-31T01:06:35.277Z,18.7
2017-07-31T01:07:36.988Z,18.7
2017-07-31T01:08:38.845Z,18.7
2017-07-31T01:09:40.520Z,18.7
2017-07-31T01:10:44.468Z,18.8
2017-07-31T01:11:46.357Z,18.6
2017-07-31T01:12:49.199Z,18.6
2017-07-31T01:13:50.954Z,18.6
2017-07-31T01:14:52.875Z,18.6
2017-07-31T01:15:54.597Z,18.5
2017-07-31T01:16:56.440Z,18.5
2017-07-31T01:17:58.182Z,18.4
2017-07-31T01:19:00.115Z,18.4
2017-07-31T01:20:01.896Z,18.2
2017-07-31T01:21:03.661Z,18.3
2017-07-31T01:22:05.376Z,18.2
2017-07-31T01:23:07.266Z,18.2
2017-07-31T01:24:08.937Z,18.1
2017-07-31T01:25:10.732Z,18.1
2017-07-31T01:26:12.396Z,18.1
2017-07-31T01:27:14.099Z,18.1
2017-07-31T01:28:15.779Z,18.0
2017-07-31T01:29:17.515Z,17.9
2017-07-31T01:30:19.166Z,18.0
2017-07-31T01:31:20.876Z,17.9
2017-07-31T01:32:22.543Z,17.8
2017-07-31T01:33:24.314Z,17.8
2017-07-31T01:34:26.077Z,17.8
2017-07-31T01:35:27.909Z,17.8
2017-07-31T01:36:29.568Z,17.8
2017-07-31T01:37:31.380Z,17.8
2017-07-31T01:38:33.071Z,17.7
2017-07-31T01:39:34.861Z,17.8
2017-07-31T01:40:36.522Z,17.8
2017-07-31T01:41:38.293Z,17.8
2017-07-31T01:42:39.963Z,17.8
2017-07-31T01:43:41.845Z,17.7
2017-07-31T01:44:43.480Z,17.6
2017-07-31T01:45:45.228Z,17.6
2017-07-31T01:46:46.902Z,17.6
2017-07-31T01:47:53.482Z,17.6
2017-07-31T01:48:55.151Z,17.5
2017-07-31T01:49:56.927Z,17.4
2017-07-31T01:50:58.599Z,17.5
2017-07-31T01:52:02.404Z,17.5
2017-07-31T01:53:04.114Z,17.4
2017-07-31T01:54:05.849Z,17.4
2017-07-31T01:55:07.525Z,17.4
2017-07-31T01:56:11.297Z,17.4
2017-07-31T01:57:12.974Z,17.3
2017-07-31T01:58:19.393Z,17.3
2017-07-31T01:59:21.078Z,17.3
2017-07-31T02:00:22.783Z,17.3
2017-07-31T02:01:24.496Z,17.4
2017-07-31T02:02:26.338Z,17.4
2017-07-31T02:03:28.846Z,17.4
2017-07-31T02:04:35.474Z,17.3
2017-07-31T02:05:37.185Z,17.3
2017-07-31T02:06:40.997Z,17.3
2017-07-31T02:07:42.677Z,17.3
2017-07-31T02:08:45.373Z,17.2
2017-07-31T02:09:47.065Z,17.3
2017-07-31T02:10:49.803Z,17.1
2017-07-31T02:11:51.471Z,17.2
2017-07-31T02:12:55.252Z,17.2
2017-07-31T02:13:56.905Z,17.2
2017-07-31T02:14:59.635Z,17.1
2017-07-31T02:16:01.307Z,17.2
2017-07-31T02:17:14.918Z,17.2
2017-07-31T02:18:16.582Z,17.2
2017-07-31T02:19:19.328Z,17.1
2017-07-31T02:20:20.994Z,17.1
2017-07-31T02:21:22.739Z,17.2
2017-07-31T02:22:24.444Z,17.0
2017-07-31T02:23:26.286Z,17.1
2017-07-31T02:24:27.962Z,17.0
2017-07-31T02:25:30.748Z,17.0
2017-07-31T02:26:32.397Z,17.1
2017-07-31T02:27:35.189Z,17.0
2017-07-31T02:28:36.852Z,17.0
2017-07-31T02:29:39.715Z,17.0
2017-07-31T02:30:41.376Z,16.9
2017-07-31T02:31:45.113Z,16.9
2017-07-31T02:32:46.777Z,17.0
2017-07-31T02:33:48.518Z,17.0
2017-07-31T02:34:50.171Z,16.9
2017-07-31T02:35:53.987Z,16.9
2017-07-31T02:36:55.658Z,17.0
2017-07-31T02:37:57.443Z,17.0
2017-07-31T02:38:59.124Z,17.0
2017-07-31T02:40:01.883Z,16.8
2017-07-31T02:41:03.544Z,17.0
2017-07-31T02:42:05.284Z,17.0
2017-07-31T02:43:06.958Z,16.8
2017-07-31T02:44:08.791Z,16.9
2017-07-31T02:45:10.489Z,16.9
2017-07-31T02:46:13.284Z,16.8
2017-07-31T02:47:14.956Z,16.9
2017-07-31T02:48:16.670Z,16.9
2017-07-31T02:49:18.374Z,16.8
2017-07-31T02:50:20.161Z,16.8
2017-07-31T02:51:21.833Z,16.8
2017-07-31T02:52:23.566Z,16.9
2017-07-31T02:53:25.242Z,16.9
2017-07-31T02:54:32.982Z,16.9
2017-07-31T02:55:34.690Z,16.9
2017-07-31T02:56:36.488Z,16.9
2017-07-31T02:57:38.156Z,16.9
2017-07-31T02:58:39.870Z,16.9
2017-07-31T02:59:41.543Z,16.9
2017-07-31T03:00:44.322Z,16.9
2017-07-31T03:01:46.018Z,16.9
2017-07-31T03:02:47.778Z,16.8
2017-07-31T03:03:49.440Z,16.8
2017-07-31T03:04:51.194Z,16.8
2017-07-31T03:05:52.852Z,16.7
2017-07-31T03:06:54.589Z,16.7
2017-07-31T03:07:56.277Z,16.6
2017-07-31T03:08:57.938Z,16.5
2017-07-31T03:09:59.588Z,16.5
2017-07-31T03:11:01.431Z,16.4
2017-07-31T03:12:03.084Z,16.4
2017-07-31T03:13:04.891Z,16.4
2017-07-31T03:14:06.574Z,16.4
2017-07-31T03:15:08.415Z,16.3
2017-07-31T03:16:10.104Z,16.5
2017-07-31T03:17:11.961Z,16.5
2017-07-31T03:18:13.643Z,16.5
2017-07-31T03:19:15.542Z,16.5
2017-07-31T03:20:17.212Z,16.6
2017-07-31T03:21:19.033Z,16.5
2017-07-31T03:22:20.770Z,16.5
2017-07-31T03:23:22.708Z,16.5
2017-07-31T03:24:24.420Z,16.6
2017-07-31T03:25:26.297Z,16.6
2017-07-31T03:26:28.039Z,16.5
2017-07-31T03:27:34.585Z,16.6
2017-07-31T03:28:36.267Z,16.5
2017-07-31T03:29:38.078Z,16.5
2017-07-31T03:30:39.768Z,16.6
2017-07-31T03:31:41.532Z,16.5
2017-07-31T03:32:43.224Z,16.6
2017-07-31T03:33:45.012Z,16.5
2017-07-31T03:34:46.700Z,16.4
2017-07-31T03:35:48.412Z,16.4
2017-07-31T03:36:50.104Z,16.5
2017-07-31T03:37:51.794Z,16.4
2017-07-31T03:38:53.539Z,16.4
2017-07-31T03:39:55.344Z,16.4
2017-07-31T03:40:57.086Z,16.3
2017-07-31T03:41:58.801Z,16.4
2017-07-31T03:43:00.483Z,16.5
2017-07-31T03:44:02.317Z,16.5
2017-07-31T03:45:04.013Z,16.4
2017-07-31T03:46:05.819Z,16.4
2017-07-31T03:47:07.492Z,16.4
2017-07-31T03:48:09.283Z,16.4
2017-07-31T03:49:10.955Z,16.4
2017-07-31T03:50:12.671Z,16.5
2017-07-31T03:51:14.348Z,16.5
2017-07-31T03:52:16.061Z,16.4
2017-07-31T03:53:17.742Z,16.5
2017-07-31T03:54:19.489Z,16.3
2017-07-31T03:55:21.182Z,16.4
2017-07-31T03:56:23.008Z,16.4
2017-07-31T03:57:24.720Z,16.4
2017-07-31T03:58:26.449Z,16.4
2017-07-31T03:59:28.923Z,16.4
2017-07-31T04:00:30.695Z,16.4
2017-07-31T04:01:32.374Z,16.5
2017-07-31T04:02:34.219Z,16.4
2017-07-31T04:03:35.909Z,16.5
2017-07-31T04:04:37.647Z,16.5
2017-07-31T04:05:39.345Z,16.5
2017-07-31T04:06:41.166Z,16.5
2017-07-31T04:07:42.899Z,16.5
2017-07-31T04:08:44.657Z,16.5
2017-07-31T04:09:46.353Z,16.5
2017-07-31T04:10:48.127Z,16.5
2017-07-31T04:11:49.835Z,16.6
2017-07-31T04:12:51.540Z,16.5
2017-07-31T04:13:53.259Z,16.5
2017-07-31T04:14:55.052Z,16.6
2017-07-31T04:15:56.710Z,16.6
2017-07-31T04:16:58.516Z,16.6
2017-07-31T04:18:00.197Z,16.5
2017-07-31T04:19:01.983Z,16.5
2017-07-31T04:20:03.666Z,16.5
2017-07-31T04:21:05.467Z,16.5
2017-07-31T04:22:07.143Z,16.5
2017-07-31T04:23:08.945Z,16.5
2017-07-31T04:24:10.636Z,16.5
2017-07-31T04:25:12.383Z,16.6
2017-07-31T04:26:14.061Z,16.5
2017-07-31T04:27:15.836Z,16.5
2017-07-31T04:28:17.517Z,16.5
2017-07-31T04:29:19.299Z,16.5
2017-07-31T04:30:20.963Z,16.6
2017-07-31T04:31:22.758Z,16.5
2017-07-31T04:32:24.443Z,16.5
2017-07-31T04:33:26.174Z,16.5
2017-07-31T04:34:27.854Z,16.5
2017-07-31T04:35:29.536Z,16.5
2017-07-31T04:36:31.229Z,16.4
2017-07-31T04:37:32.932Z,16.3
2017-07-31T04:38:34.605Z,16.4
2017-07-31T04:39:36.311Z,16.3
2017-07-31T04:40:37.995Z,16.4
2017-07-31T04:41:39.720Z,16.4
2017-07-31T04:42:41.488Z,16.4
2017-07-31T04:43:43.196Z,16.3
2017-07-31T04:44:44.858Z,16.3
2017-07-31T04:45:47.634Z,16.2
2017-07-31T04:46:49.303Z,16.1
2017-07-31T04:47:51.028Z,16.2
2017-07-31T04:48:52.746Z,16.1
2017-07-31T04:49:54.425Z,16.2
2017-07-31T04:50:56.097Z,16.0
2017-07-31T04:51:57.810Z,16.1
2017-07-31T04:52:59.471Z,16.1
2017-07-31T04:54:01.322Z,16.2
2017-07-31T04:55:02.992Z,16.2
2017-07-31T04:56:04.776Z,16.2
2017-07-31T04:57:06.478Z,16.2
2017-07-31T04:58:08.230Z,16.4
2017-07-31T04:59:09.893Z,16.4
2017-07-31T05:00:11.713Z,16.5
2017-07-31T05:01:13.442Z,16.6
2017-07-31T05:02:15.198Z,16.6
2017-07-31T05:03:16.866Z,16.7
2017-07-31T05:04:18.570Z,16.7
2017-07-31T05:05:20.271Z,16.7
2017-07-31T05:06:22.073Z,16.8
2017-07-31T05:07:23.866Z,16.8
2017-07-31T05:08:25.735Z,16.8
2017-07-31T05:09:27.480Z,16.9
2017-07-31T05:10:29.296Z,17.0
2017-07-31T05:11:31.013Z,17.0
2017-07-31T05:12:32.778Z,17.0
2017-07-31T05:13:34.448Z,17.0
2017-07-31T05:14:36.273Z,17.1
2017-07-31T05:15:38.023Z,17.1
2017-07-31T05:16:39.720Z,17.2
2017-07-31T05:17:41.548Z,17.3
2017-07-31T05:18:43.275Z,17.3
2017-07-31T05:19:45.111Z,17.3
2017-07-31T05:20:46.786Z,17.1
2017-07-31T05:21:48.641Z,17.1
2017-07-31T05:22:50.355Z,17.0
2017-07-31T05:23:52.094Z,17.1
2017-07-31T05:24:53.791Z,17.1
2017-07-31T05:25:55.590Z,17.1
2017-07-31T05:26:57.310Z,17.2
2017-07-31T05:27:59.175Z,17.2
2017-07-31T05:29:00.874Z,17.2
2017-07-31T05:30:02.726Z,17.2
2017-07-31T05:31:04.446Z,17.2
2017-07-31T05:32:07.176Z,17.2
2017-07-31T05:33:08.864Z,17.3
2017-07-31T05:34:11.642Z,17.2
2017-07-31T05:35:13.319Z,17.4
2017-07-31T05:36:15.409Z,17.4
2017-07-31T05:37:17.096Z,17.5
2017-07-31T05:38:18.878Z,17.5
2017-07-31T05:39:20.581Z,17.6
2017-07-31T05:40:22.429Z,17.5
2017-07-31T05:41:24.105Z,17.4
2017-07-31T05:42:25.800Z,17.5
2017-07-31T05:43:33.582Z,17.4
2017-07-31T05:44:35.274Z,17.4
2017-07-31T05:45:37.049Z,17.5
2017-07-31T05:46:38.744Z,17.6
2017-07-31T05:47:40.459Z,17.6
2017-07-31T05:48:42.180Z,17.6
2017-07-31T05:49:43.920Z,17.6
2017-07-31T05:50:45.597Z,17.6
2017-07-31T05:51:47.268Z,17.6
2017-07-31T05:52:49.053Z,17.7
2017-07-31T05:53:50.730Z,17.8
2017-07-31T05:54:52.479Z,17.7
2017-07-31T05:55:54.165Z,17.9
2017-07-31T05:56:56.039Z,17.9
2017-07-31T05:57:57.702Z,18.0
2017-07-31T05:58:59.480Z,18.0
2017-07-31T06:00:01.152Z,18.1
2017-07-31T06:01:02.846Z,18.2
2017-07-31T06:02:04.517Z,18.3
2017-07-31T06:03:06.295Z,18.3
2017-07-31T06:04:08.031Z,18.3
2017-07-31T06:05:09.743Z,18.4
2017-07-31T06:06:11.415Z,18.3
2017-07-31T06:07:13.080Z,18.2
2017-07-31T06:08:14.772Z,18.2
2017-07-31T06:09:16.438Z,18.3
2017-07-31T06:10:18.149Z,18.2
2017-07-31T06:11:20.042Z,18.1
2017-07-31T06:12:21.717Z,18.1
2017-07-31T06:13:23.457Z,18.0
2017-07-31T06:14:25.325Z,18.0
2017-07-31T06:15:27.032Z,18.0
2017-07-31T06:16:28.749Z,18.0
2017-07-31T06:17:30.566Z,18.0
2017-07-31T06:18:32.281Z,18.0
2017-07-31T06:19:34.001Z,18.0
2017-07-31T06:20:35.709Z,18.1
2017-07-31T06:21:39.560Z,18.2
2017-07-31T06:22:41.302Z,18.3
2017-07-31T06:23:49.108Z,18.2
2017-07-31T06:24:50.844Z,18.3
2017-07-31T06:25:52.539Z,18.2
2017-07-31T06:26:54.196Z,18.2
2017-07-31T06:28:00.612Z,18.2
2017-07-31T06:29:02.301Z,18.1
2017-07-31T06:30:04.095Z,18.1
2017-07-31T06:31:05.855Z,18.1
2017-07-31T06:32:07.680Z,18.3
2017-07-31T06:33:09.481Z,18.2
2017-07-31T06:34:11.197Z,18.2
2017-07-31T06:35:12.942Z,18.3
2017-07-31T06:36:15.752Z,18.2
2017-07-31T06:37:17.617Z,18.3
2017-07-31T06:38:20.658Z,18.4
2017-07-31T06:39:22.391Z,18.4
2017-07-31T06:40:24.234Z,18.4
2017-07-31T06:41:26.060Z,18.4
2017-07-31T06:42:27.957Z,18.4
2017-07-31T06:43:29.885Z,18.5
2017-07-31T06:44:31.854Z,18.6
2017-07-31T06:45:33.703Z,18.5
2017-07-31T06:46:35.619Z,18.6
2017-07-31T06:47:37.562Z,18.5
2017-07-31T06:48:40.636Z,18.5
2017-07-31T06:49:42.524Z,18.6
2017-07-31T06:50:44.377Z,18.7
2017-07-31T06:51:46.173Z,18.6
2017-07-31T06:52:48.067Z,18.7
2017-07-31T06:53:50.288Z,18.7
2017-07-31T06:54:52.254Z,18.7
2017-07-31T06:55:54.044Z,18.7
2017-07-31T06:56:55.892Z,18.7
2017-07-31T06:57:57.646Z,18.6
2017-07-31T06:58:59.538Z,18.8
2017-07-31T07:00:01.237Z,18.6
2017-07-31T07:01:03.070Z,18.7
2017-07-31T07:02:04.826Z,18.7
2017-07-31T07:03:06.669Z,18.6
2017-07-31T07:04:08.411Z,18.6
2017-07-31T07:05:10.179Z,18.6
2017-07-31T07:06:11.911Z,18.6
2017-07-31T07:07:13.774Z,18.6
2017-07-31T07:08:15.582Z,18.7
2017-07-31T07:09:17.303Z,18.7
2017-07-31T07:10:19.058Z,18.6
2017-07-31T07:11:20.788Z,18.7
2017-07-31T07:12:23.286Z,18.7
2017-07-31T07:13:25.546Z,18.8
2017-07-31T09:34:43.623Z,22.4
2017-07-31T09:35:45.354Z,22.4
2017-07-31T09:36:47.031Z,22.5
2017-07-31T09:37:48.725Z,22.4
2017-07-31T09:38:50.398Z,22.5
2017-07-31T09:39:52.069Z,22.5
2017-07-31T09:40:53.738Z,22.6
2017-07-31T09:41:55.422Z,22.6
2017-07-31T09:42:57.213Z,22.6
2017-07-31T09:43:58.886Z,22.6
2017-07-31T09:45:00.565Z,22.7
2017-07-31T09:46:02.238Z,22.7
2017-07-31T09:47:04.064Z,22.7
2017-07-31T09:48:05.773Z,22.7
2017-07-31T09:49:07.577Z,22.7
2017-07-31T09:50:09.228Z,22.7
2017-07-31T09:51:12.080Z,22.7
2017-07-31T09:52:14.390Z,22.7
2017-07-31T09:53:16.157Z,22.7
2017-07-31T09:54:17.858Z,22.7
2017-07-31T09:55:19.745Z,22.8
2017-07-31T09:56:21.400Z,22.9
2017-07-31T09:57:23.149Z,22.9
2017-07-31T09:58:24.801Z,22.9
2017-07-31T09:59:27.380Z,23.0
2017-07-31T10:00:29.073Z,23.1
2017-07-31T10:01:32.610Z,23.1
2017-07-31T10:02:34.286Z,23.1
2017-07-31T10:03:36.056Z,23.2
2017-07-31T10:05:49.391Z,23.4
2017-07-31T10:06:51.693Z,23.4
2017-07-31T10:07:53.443Z,23.6
2017-07-31T10:08:55.243Z,23.6
2017-07-31T10:09:56.897Z,23.6
2017-07-31T10:10:58.730Z,23.6
2017-07-31T10:12:00.398Z,23.7
2017-07-31T10:13:03.145Z,23.7
2017-07-31T10:14:04.857Z,23.7
2017-07-31T10:15:06.638Z,23.7
2017-07-31T10:16:08.334Z,23.6
2017-07-31T10:17:10.037Z,23.6
2017-07-31T10:18:11.708Z,23.6
2017-07-31T10:19:13.446Z,23.5
2017-07-31T10:20:15.143Z,23.5
2017-07-31T10:21:18.875Z,23.5
2017-07-31T10:22:20.631Z,23.4
2017-07-31T10:23:23.419Z,23.4
2017-07-31T10:24:25.425Z,23.5
2017-07-31T10:25:28.070Z,23.5
2017-07-31T10:26:29.750Z,23.6
2017-07-31T10:27:31.520Z,23.6
2017-07-31T10:28:33.288Z,23.7
2017-07-31T10:29:37.196Z,23.7
2017-07-31T10:30:39.053Z,23.7
2017-07-31T10:31:40.740Z,23.7
2017-07-31T10:32:42.470Z,23.8
2017-07-31T10:33:44.237Z,23.8
2017-07-31T10:34:45.935Z,23.9
2017-07-31T10:35:47.605Z,23.9
2017-07-31T10:36:49.388Z,24.0
2017-07-31T10:37:51.124Z,24.0
2017-07-31T10:38:52.933Z,24.1
2017-07-31T10:39:54.645Z,24.1
2017-07-31T10:40:58.426Z,24.1
2017-07-31T10:42:00.135Z,24.1
2017-07-31T10:43:06.847Z,24.1
2017-07-31T10:44:08.582Z,24.2
2017-07-31T10:45:10.380Z,24.2
2017-07-31T10:46:12.857Z,24.3
2017-07-31T10:47:14.591Z,24.4
2017-07-31T10:48:16.432Z,24.5
2017-07-31T10:49:18.109Z,24.5
2017-07-31T10:50:19.854Z,24.6
2017-07-31T10:51:21.513Z,24.7
2017-07-31T10:52:25.282Z,24.8
2017-07-31T10:53:27.052Z,24.8
2017-07-31T10:54:28.822Z,24.9
2017-07-31T10:55:30.561Z,24.9
2017-07-31T10:56:33.395Z,25.0
2017-07-31T10:57:35.089Z,25.0
2017-07-31T10:58:38.838Z,24.9
2017-07-31T10:59:40.510Z,25.1
2017-07-31T11:00:42.358Z,25.0
2017-07-31T11:01:44.190Z,25.2
2017-07-31T11:02:45.950Z,25.2
2017-07-31T11:03:49.423Z,25.2
2017-07-31T11:04:57.826Z,25.3
2017-07-31T11:05:59.496Z,25.2
2017-07-31T11:07:01.327Z,25.2
2017-07-31T11:08:03.063Z,25.3
2017-07-31T11:09:05.857Z,25.3
2017-07-31T11:10:09.240Z,25.5
2017-07-31T11:11:17.836Z,25.5
2017-07-31T11:12:19.574Z,25.6
2017-07-31T11:13:23.299Z,25.6
2017-07-31T11:14:25.060Z,25.6
2017-07-31T11:15:27.852Z,25.6
2017-07-31T11:16:29.599Z,25.7
2017-07-31T11:17:33.491Z,25.7
2017-07-31T11:18:36.206Z,25.7
2017-07-31T11:19:37.977Z,25.7
2017-07-31T11:20:39.635Z,25.8
2017-07-31T11:21:41.685Z,25.8
2017-07-31T11:22:43.640Z,25.8
2017-07-31T11:23:45.450Z,25.8
2017-07-31T11:24:47.198Z,25.8
2017-07-31T11:25:52.114Z,25.8
2017-07-31T11:26:53.892Z,25.7
2017-07-31T11:27:56.694Z,25.9
2017-07-31T11:28:58.473Z,25.8
2017-07-31T11:30:02.412Z,25.8
2017-07-31T12:08:57.468Z,26.6
2017-07-31T12:09:59.203Z,26.7
2017-07-31T12:11:00.926Z,26.8
2017-07-31T12:12:04.644Z,26.8
2017-07-31T12:13:06.350Z,26.8
2017-07-31T12:14:09.141Z,26.9
2017-07-31T12:15:10.810Z,27.0
2017-07-31T12:16:12.622Z,27.0
2017-07-31T12:17:14.362Z,26.8
2017-07-31T12:18:21.044Z,26.8
2017-07-31T12:19:22.747Z,26.7
2017-07-31T12:20:24.456Z,26.7
2017-07-31T12:21:26.156Z,26.6
2017-07-31T12:22:27.836Z,26.6
2017-07-31T12:23:30.686Z,26.5
2017-07-31T12:24:32.427Z,26.4
2017-07-31T12:25:35.144Z,26.4
2017-07-31T12:26:36.887Z,26.2
2017-07-31T12:27:38.618Z,26.2
2017-07-31T12:28:42.384Z,26.1
2017-07-31T12:29:44.146Z,26.1
2017-07-31T12:30:45.794Z,26.0
2017-07-31T12:31:47.515Z,26.0
2017-07-31T12:32:49.220Z,26.0
2017-07-31T12:33:50.971Z,25.9
2017-07-31T12:34:54.655Z,25.9
2017-07-31T12:35:56.389Z,25.9
2017-07-31T12:36:58.234Z,25.8
2017-07-31T12:37:59.964Z,25.8
2017-07-31T12:39:02.805Z,25.9
2017-07-31T12:40:04.467Z,26.0
2017-07-31T12:41:08.209Z,26.0
2017-07-31T12:42:09.994Z,26.1
2017-07-31T12:43:11.780Z,26.1
2017-07-31T12:44:13.476Z,26.1
2017-07-31T12:45:16.224Z,26.2
2017-07-31T12:46:18.005Z,26.2
2017-07-31T12:47:24.584Z,26.2
2017-07-31T12:48:26.308Z,26.3
2017-07-31T12:49:28.096Z,26.3
2017-07-31T12:50:29.834Z,26.4
2017-07-31T12:51:33.696Z,26.4
2017-07-31T12:52:35.443Z,26.3
2017-07-31T12:53:37.169Z,26.3
2017-07-31T12:54:38.998Z,26.3
2017-07-31T12:55:40.685Z,26.2
2017-07-31T12:56:42.549Z,26.1
2017-07-31T12:57:44.404Z,26.0
2017-07-31T12:58:48.178Z,26.0
2017-07-31T12:59:49.984Z,26.0
2017-07-31T13:00:51.892Z,25.9
2017-07-31T13:01:53.597Z,26.0
2017-07-31T13:02:55.480Z,26.0
2017-07-31T13:03:57.196Z,25.9
2017-07-31T13:04:59.982Z,25.9
2017-07-31T13:06:01.679Z,26.0
2017-07-31T13:07:04.411Z,25.9
2017-07-31T13:08:06.206Z,25.9
2017-07-31T13:09:08.041Z,25.8
2017-07-31T13:10:09.773Z,25.8
2017-07-31T13:11:11.486Z,25.8
2017-07-31T13:12:13.151Z,25.9
2017-07-31T13:13:14.877Z,25.9
2017-07-31T13:14:16.746Z,26.0
2017-07-31T13:15:18.572Z,26.1
2017-07-31T13:16:20.306Z,26.1
2017-07-31T13:17:22.085Z,26.0
2017-07-31T13:18:23.892Z,26.1
2017-07-31T13:19:25.744Z,26.1
2017-07-31T13:20:27.504Z,26.0
2017-07-31T13:21:29.254Z,26.1
2017-07-31T13:22:31.011Z,26.2
2017-07-31T13:23:32.870Z,26.2
2017-07-31T13:24:34.778Z,26.3
2017-07-31T13:25:36.723Z,26.3
2017-07-31T13:26:38.697Z,26.4
2017-07-31T13:27:40.912Z,26.4
2017-07-31T13:28:42.875Z,26.4
2017-07-31T13:29:44.754Z,26.4
2017-07-31T13:30:46.697Z,26.4
2017-07-31T13:31:48.637Z,26.5
2017-07-31T13:32:50.585Z,26.4
2017-07-31T13:33:52.646Z,26.4
2017-07-31T13:34:54.549Z,26.4
2017-07-31T13:35:56.482Z,26.4
2017-07-31T13:37:01.318Z,26.4
2017-07-31T13:38:03.349Z,26.4
2017-07-31T13:39:05.183Z,26.4
2017-07-31T13:40:13.496Z,26.4
2017-07-31T13:41:15.515Z,26.4
2017-07-31T13:42:18.454Z,26.5
2017-07-31T13:43:20.256Z,26.4
2017-07-31T13:44:22.197Z,26.4
2017-07-31T13:45:24.008Z,26.3
2017-07-31T13:46:25.842Z,26.3
2017-07-31T13:47:27.616Z,26.3
2017-07-31T13:48:29.383Z,26.3
2017-07-31T13:49:31.162Z,26.3
2017-07-31T13:50:32.857Z,26.3
2017-07-31T13:51:34.589Z,26.3
2017-07-31T13:52:37.466Z,26.4
2017-07-31T13:53:39.199Z,26.4
2017-07-31T13:54:42.947Z,26.4
2017-07-31T13:55:44.625Z,26.4
2017-07-31T13:56:46.508Z,26.2
2017-07-31T13:57:48.305Z,26.2
2017-07-31T13:58:50.058Z,26.2
2017-07-31T13:59:51.823Z,26.2
2017-07-31T14:00:53.655Z,26.2
2017-07-31T14:01:55.473Z,26.2
2017-07-31T14:16:11.877Z,26.3
2017-07-31T14:17:15.379Z,26.3
2017-07-31T14:18:17.138Z,26.3
2017-07-31T14:19:18.941Z,26.4
2017-07-31T14:20:20.825Z,26.4
2017-07-31T14:21:24.534Z,26.4
2017-07-31T14:22:27.620Z,26.3
2017-07-31T14:23:29.413Z,26.3
2017-07-31T14:24:31.161Z,26.2
2017-07-31T14:25:33.047Z,26.3
2017-07-31T14:26:34.789Z,26.2
2017-07-31T14:27:48.028Z,26.2
2017-07-31T14:28:49.776Z,26.2
2017-07-31T14:29:51.561Z,26.1
2017-07-31T14:30:53.314Z,26.0
2017-07-31T14:32:01.671Z,25.8
2017-07-31T14:33:03.480Z,25.7
2017-07-31T14:34:06.172Z,25.8
2017-07-31T14:35:08.561Z,25.7
2017-07-31T14:36:11.362Z,25.7
2017-07-31T14:37:13.113Z,25.7
2017-07-31T14:38:14.848Z,25.8
2017-07-31T14:39:16.637Z,25.9
2017-07-31T14:40:18.302Z,26.1
2017-07-31T14:41:22.456Z,26.2
2017-07-31T14:42:24.118Z,26.3
2017-07-31T14:43:25.906Z,26.4
2017-07-31T14:44:27.614Z,26.4
2017-07-31T14:45:31.315Z,26.4
2017-07-31T14:46:32.974Z,26.4
2017-07-31T14:47:34.760Z,26.4
2017-07-31T14:48:37.081Z,26.3
2017-07-31T14:49:39.406Z,26.4
2017-07-31T14:50:43.489Z,26.4
2017-07-31T14:51:45.221Z,26.4
2017-07-31T14:52:46.922Z,26.4
2017-07-31T14:53:48.691Z,26.2
2017-07-31T14:54:50.431Z,26.1
2017-07-31T14:55:52.180Z,26.1
2017-07-31T14:56:53.862Z,25.9
2017-07-31T14:57:55.575Z,25.9
2017-07-31T14:58:57.235Z,25.8
2017-07-31T14:59:58.972Z,25.7
2017-07-31T15:01:00.664Z,25.7
2017-07-31T15:02:02.389Z,25.7
2017-07-31T15:03:04.043Z,25.7
2017-07-31T15:04:05.788Z,25.7
2017-07-31T15:05:07.498Z,25.7
2017-07-31T15:06:09.176Z,25.7
2017-07-31T15:07:10.839Z,25.7
2017-07-31T15:08:18.307Z,25.7
2017-07-31T15:09:19.960Z,25.7
2017-07-31T15:10:27.744Z,25.7
2017-07-31T15:11:29.439Z,25.8
2017-07-31T15:12:31.272Z,25.9
2017-07-31T15:13:32.997Z,26.0
2017-07-31T15:14:36.864Z,26.1
2017-07-31T15:15:38.526Z,26.2
2017-07-31T15:16:46.209Z,26.2
2017-07-31T15:17:47.914Z,26.2
2017-07-31T15:18:49.741Z,26.2
2017-07-31T15:19:51.429Z,26.2
2017-07-31T15:20:58.156Z,26.2
2017-07-31T15:21:59.834Z,26.2
2017-07-31T15:23:14.337Z,26.1
2017-07-31T15:24:15.993Z,26.1
2017-07-31T15:25:22.701Z,26.0
2017-07-31T15:26:24.463Z,25.9
2017-07-31T15:27:27.312Z,25.9
2017-07-31T15:28:29.045Z,25.9
2017-07-31T15:29:30.931Z,25.8
2017-07-31T15:30:38.587Z,25.7
2017-07-31T15:31:40.421Z,25.7
2017-07-31T15:32:42.215Z,25.6
2017-07-31T15:33:55.687Z,25.6
2017-07-31T15:34:57.351Z,25.6
2017-07-31T15:36:04.192Z,25.7
2017-07-31T15:37:05.870Z,25.7
2017-07-31T15:38:08.712Z,25.7
2017-07-31T15:39:10.474Z,25.7
2017-07-31T15:40:12.231Z,25.7
2017-07-31T15:41:13.956Z,25.6
2017-07-31T15:42:15.828Z,25.6
2017-07-31T15:43:17.505Z,25.5
2017-07-31T15:44:19.327Z,25.6
2017-07-31T15:45:21.005Z,25.6
2017-07-31T15:46:22.802Z,25.6
2017-07-31T15:47:24.470Z,25.6
2017-07-31T15:48:26.299Z,25.8
2017-07-31T15:49:27.964Z,25.7
2017-07-31T15:50:40.669Z,25.8
2017-07-31T15:51:42.390Z,25.8
2017-07-31T15:52:44.083Z,26.0
2017-07-31T15:53:45.770Z,25.9
2017-07-31T15:54:47.468Z,26.1
2017-07-31T15:55:51.400Z,26.1
2017-07-31T15:56:53.164Z,26.2
2017-07-31T15:57:58.674Z,26.2
2017-07-31T15:59:00.352Z,26.2
2017-07-31T16:00:02.230Z,26.2
2017-07-31T16:01:03.895Z,26.2
2017-07-31T16:02:06.731Z,26.1
2017-07-31T16:03:08.454Z,26.1
2017-07-31T16:04:10.335Z,26.1
2017-07-31T16:05:12.040Z,25.9
2017-07-31T16:06:13.941Z,25.9
2017-07-31T16:07:15.634Z,25.9
2017-07-31T16:08:18.446Z,25.8
2017-07-31T16:09:20.100Z,25.8
2017-07-31T16:10:27.669Z,25.8
2017-07-31T16:11:29.364Z,25.7
2017-07-31T16:12:31.080Z,25.7
2017-07-31T16:13:32.752Z,25.7
2017-07-31T16:14:34.450Z,25.6
2017-07-31T16:15:36.119Z,25.5
2017-07-31T16:16:39.015Z,25.4
2017-07-31T16:17:40.750Z,25.4
2017-07-31T16:18:43.491Z,25.3
2017-07-31T16:19:45.150Z,25.4
2017-07-31T16:20:47.938Z,25.4
2017-07-31T16:21:49.597Z,25.5
2017-07-31T16:49:31.503Z,25.8
2017-07-31T16:50:33.176Z,25.8
2017-07-31T16:51:34.961Z,25.7
2017-07-31T16:52:36.694Z,25.7
2017-07-31T16:53:38.417Z,25.7
2017-07-31T16:54:40.073Z,25.6
2017-07-31T16:55:42.897Z,25.5
2017-07-31T16:56:44.635Z,25.6
2017-07-31T16:57:48.435Z,25.6
2017-07-31T16:58:50.165Z,25.7
2017-07-31T16:59:52.868Z,25.7
2017-07-31T17:00:54.588Z,25.7
2017-07-31T17:01:56.388Z,25.7
2017-07-31T17:02:58.066Z,25.8
2017-07-31T17:04:00.843Z,25.8
2017-07-31T17:05:02.552Z,25.8
2017-07-31T17:06:04.379Z,25.8
2017-07-31T17:07:06.046Z,25.8
2017-07-31T17:08:08.573Z,25.8
2017-07-31T17:09:10.394Z,25.8
2017-07-31T17:10:12.108Z,25.7
2017-07-31T17:11:13.871Z,25.6
2017-07-31T17:12:21.207Z,25.5
2017-07-31T17:13:22.957Z,25.4
2017-07-31T17:14:24.725Z,25.4
2017-07-31T17:15:26.436Z,25.5
2017-07-31T17:16:30.239Z,25.6
2017-07-31T17:17:32.036Z,25.5
2017-07-31T17:18:34.871Z,25.6
2017-07-31T17:19:36.636Z,25.7
2017-07-31T17:20:38.506Z,25.6
2017-07-31T17:21:40.239Z,25.6
2017-07-31T17:22:44.105Z,25.5
2017-07-31T17:23:45.844Z,25.5
2017-07-31T17:24:58.236Z,25.6
2017-07-31T17:25:59.963Z,25.6
2017-07-31T17:27:12.789Z,25.6